createdAt,value
2023-02-08T00:01:59.452Z,8.37
2023-02-08T00:06:51.125Z,8.77
2023-02-08T00:11:42.896Z,9.17
2023-02-08T00:16:34.941Z,9.23
2023-02-08T00:21:26.614Z,8.50
2023-02-08T00:26:19.889Z,8.33
2023-02-08T00:31:11.652Z,8.43
2023-02-08T00:36:08.046Z,8.23
2023-02-08T00:40:59.805Z,7.53
2023-02-08T00:46:00.955Z,7.63
2023-02-08T00:51:05.120Z,8.70
2023-02-08T00:55:57.146Z,8.10
2023-02-08T01:00:53.124Z,8.07
2023-02-08T01:05:44.846Z,8.50
2023-02-08T01:10:36.533Z,8.07
2023-02-08T01:15:28.232Z,9.00
2023-02-08T01:20:20.204Z,8.30
2023-02-08T01:25:11.896Z,9.10
2023-02-08T01:30:05.178Z,8.03
2023-02-08T01:34:56.844Z,8.17
2023-02-08T01:39:48.531Z,8.00
2023-02-08T01:45:21.053Z,8.77
2023-02-08T01:50:17.806Z,8.33
2023-02-08T01:55:20.374Z,8.63
2023-02-08T02:00:22.213Z,8.53
2023-02-08T02:05:16.215Z,7.93
2023-02-08T02:10:14.274Z,8.43
2023-02-08T02:15:08.060Z,7.53
2023-02-08T02:20:23.753Z,9.03
2023-02-08T02:25:42.538Z,8.27
2023-02-08T02:30:53.119Z,7.50
2023-02-08T02:36:03.003Z,8.30
2023-02-08T02:41:05.818Z,8.13
2023-02-08T02:46:25.265Z,8.93
2023-02-08T02:51:44.192Z,7.63
2023-02-08T02:56:43.036Z,7.57
2023-02-08T03:01:36.100Z,7.77
2023-02-08T03:06:59.913Z,9.23
2023-02-08T03:12:22.487Z,8.57
2023-02-08T03:17:59.986Z,8.53
2023-02-08T03:23:24.294Z,7.73
2023-02-08T03:28:39.575Z,8.47
2023-02-08T03:34:02.636Z,8.23
2023-02-08T03:38:56.068Z,7.47
2023-02-08T03:44:05.485Z,8.23
2023-02-08T03:49:08.415Z,7.47
2023-02-08T03:54:06.517Z,8.77
2023-02-08T03:59:09.193Z,8.20
2023-02-08T04:04:01.560Z,8.77
2023-02-08T04:08:53.492Z,9.63
2023-02-08T04:13:45.287Z,7.93
2023-02-08T04:18:36.953Z,8.30
2023-02-08T04:23:28.610Z,8.63
2023-02-08T04:28:20.321Z,9.13
2023-02-08T04:33:14.698Z,8.10
2023-02-08T04:38:06.381Z,8.50
2023-02-08T04:42:58.052Z,8.47
2023-02-08T04:47:49.715Z,8.00
2023-02-08T04:52:41.380Z,7.53
2023-02-08T04:57:33.052Z,7.37
2023-02-08T05:02:26.576Z,7.00
2023-02-08T05:07:19.116Z,7.27
2023-02-08T05:12:10.849Z,6.90
2023-02-08T05:17:02.720Z,7.87
2023-02-08T05:21:54.735Z,8.30
2023-02-08T05:26:47.220Z,8.00
2023-02-08T05:31:39.478Z,7.80
2023-02-08T05:36:32.595Z,8.90
2023-02-08T05:41:24.958Z,7.43
2023-02-08T05:46:17.015Z,7.23
2023-02-08T05:51:09.628Z,8.17
2023-02-08T05:56:01.567Z,8.87
2023-02-08T06:00:54.568Z,7.70
2023-02-08T06:05:47.094Z,7.93
2023-02-08T06:15:45.944Z,8.70
2023-02-08T06:20:43.011Z,8.13
2023-02-08T06:25:37.224Z,7.60
2023-02-08T06:35:39.073Z,7.47
2023-02-08T06:40:33.209Z,6.57
2023-02-08T06:45:25.060Z,8.67
2023-02-08T06:50:17.370Z,6.80
2023-02-08T07:00:16.866Z,7.93
2023-02-08T07:05:11.081Z,7.10
2023-02-08T07:10:05.218Z,7.73
2023-02-08T07:14:58.089Z,7.73
2023-02-08T07:24:57.734Z,7.53
2023-02-08T07:34:56.086Z,8.47
2023-02-08T07:39:50.141Z,8.13
2023-02-08T07:44:43.277Z,8.60
2023-02-08T07:49:35.384Z,8.20
2023-02-08T07:54:27.876Z,8.17
2023-02-08T07:59:19.897Z,6.77
2023-02-08T08:04:13.033Z,8.17
2023-02-08T08:09:06.078Z,9.77
2023-02-08T08:24:10.958Z,8.00
2023-02-08T08:29:03.118Z,8.57
2023-02-08T08:33:56.621Z,9.20
2023-02-08T08:38:49.091Z,7.90
2023-02-08T08:43:43.500Z,7.80
2023-02-08T09:14:41.699Z,7.83
2023-02-08T09:24:40.177Z,8.37
2023-02-08T09:39:52.044Z,8.70
2023-02-08T09:56:14.785Z,9.00
2023-02-08T10:17:58.154Z,8.83
2023-02-08T11:17:36.497Z,9.20
2023-02-08T11:48:59.593Z,9.00
2023-02-08T12:55:56.300Z,8.80
2023-02-08T13:00:56.199Z,9.30
2023-02-08T13:06:02.200Z,8.93
2023-02-08T13:11:21.178Z,8.03
2023-02-08T13:16:39.373Z,8.37
2023-02-08T13:32:09.743Z,7.90
2023-02-08T13:37:25.188Z,7.77
2023-02-08T13:42:36.417Z,7.93
2023-02-08T13:47:44.091Z,8.27
2023-02-08T13:52:49.536Z,7.77
2023-02-08T14:24:50.471Z,7.30
2023-02-08T14:29:44.687Z,7.37
2023-02-08T14:50:41.188Z,7.73
2023-02-08T14:55:49.497Z,6.90
2023-02-08T15:06:17.567Z,6.23
2023-02-08T16:08:44.527Z,9.93
2023-02-08T16:34:48.541Z,10.77
2023-02-08T16:45:09.328Z,9.77
2023-02-08T16:50:03.147Z,10.67
2023-02-08T17:00:04.301Z,10.10
2023-02-08T17:15:09.296Z,9.03
2023-02-08T17:20:02.733Z,8.77
2023-02-08T17:30:01.330Z,8.13
2023-02-08T17:34:53.720Z,8.83
2023-02-08T17:39:46.582Z,7.83
2023-02-08T17:49:45.901Z,7.73
2023-02-08T17:54:38.706Z,8.20
2023-02-08T18:04:37.381Z,11.60
2023-02-08T18:09:32.893Z,12.23
2023-02-08T18:14:24.790Z,11.77
2023-02-08T18:19:17.284Z,10.80
2023-02-08T18:24:10.728Z,12.53
2023-02-08T18:29:03.875Z,11.87
2023-02-08T18:33:57.656Z,11.97
2023-02-08T18:44:00.145Z,11.50
2023-02-08T18:48:54.397Z,10.50
2023-02-08T18:53:51.678Z,10.87
2023-02-08T18:58:45.030Z,11.83
2023-02-08T19:03:40.395Z,12.30
2023-02-08T19:08:33.096Z,12.73
2023-02-08T19:13:30.384Z,11.47
2023-02-08T19:18:22.773Z,10.13
2023-02-08T19:23:18.510Z,9.70
2023-02-08T19:28:10.701Z,11.47
2023-02-08T19:33:03.391Z,10.27
2023-02-08T19:37:55.210Z,11.80
2023-02-08T19:42:48.205Z,11.63
2023-02-08T19:47:50.995Z,10.27
2023-02-08T19:52:43.526Z,10.80
2023-02-08T19:57:40.277Z,11.17
2023-02-08T20:02:32.934Z,10.93
2023-02-08T20:07:26.519Z,9.97
2023-02-08T20:12:19.729Z,9.80
2023-02-08T20:17:11.870Z,10.27
2023-02-08T20:22:11.809Z,11.57
2023-02-08T20:27:03.975Z,12.33
2023-02-08T20:31:57.789Z,12.17
2023-02-08T20:37:05.695Z,10.90
2023-02-08T20:42:02.696Z,11.67
2023-02-08T20:46:54.613Z,11.27
2023-02-08T20:51:46.858Z,11.10
2023-02-08T20:56:40.362Z,12.20
2023-02-08T21:01:35.111Z,11.53
2023-02-08T21:06:31.713Z,11.10
2023-02-08T21:11:28.715Z,11.10
2023-02-08T21:16:22.414Z,11.87
2023-02-08T21:21:15.569Z,12.77
2023-02-08T21:26:08.861Z,12.50
2023-02-08T21:31:12.843Z,13.40
2023-02-08T21:36:10.368Z,13.37
2023-02-08T21:41:16.682Z,12.00
2023-02-08T21:46:13.408Z,13.20
2023-02-08T21:51:24.045Z,12.07
2023-02-08T21:56:15.878Z,12.50
2023-02-08T22:01:09.039Z,12.77
2023-02-08T22:06:01.649Z,12.00
2023-02-08T22:10:58.308Z,12.70
2023-02-08T22:15:50.835Z,11.70
2023-02-08T22:20:47.334Z,12.23
2023-02-08T22:25:39.318Z,12.20
2023-02-08T22:30:32.322Z,12.43
2023-02-08T22:35:28.056Z,13.47
2023-02-08T22:40:20.342Z,12.57
2023-02-08T22:45:12.577Z,13.97
2023-02-08T22:50:06.342Z,13.23
2023-02-08T22:55:02.995Z,13.60
2023-02-08T22:59:55.391Z,13.33
2023-02-08T23:04:47.503Z,13.30
2023-02-08T23:09:39.457Z,13.10
2023-02-08T23:14:31.374Z,12.43
2023-02-08T23:19:41.065Z,13.07
2023-02-08T23:24:33.207Z,11.87
2023-02-08T23:29:26.077Z,11.57
2023-02-08T23:34:18.479Z,11.33
2023-02-08T23:39:13.700Z,11.77
2023-02-08T23:44:06.447Z,12.30
2023-02-08T23:48:58.688Z,12.77
2023-02-08T23:53:52.653Z,12.87
2023-02-08T23:58:51.702Z,11.30
